sensor_id;sensor_type;location;lat;lon;timestamp;pressure;altitude;pressure_sealevel;temperature;humidity
72892;BME280;61032;50.782;6.818;2024-01-06T00:00:32;99243.50;;;7.81;78.12
72892;BME280;61032;50.782;6.818;2024-01-06T00:01:32;99240.63;;;7.77;78.01
72892;BME280;61032;50.782;6.818;2024-01-06T00:02:33;99235.84;;;7.74;78.21
72892;BME280;61032;50.782;6.818;2024-01-06T00:03:33;99232.56;;;7.81;78.22
72892;BME280;61032;50.782;6.818;2024-01-06T00:04:33;99242.13;;;7.75;78.76
72892;BME280;61032;50.782;6.818;2024-01-06T00:05:34;99244.06;;;7.74;78.97
72892;BME280;61032;50.782;6.818;2024-01-06T00:06:34;99246.13;;;7.77;79.28
72892;BME280;61032;50.782;6.818;2024-01-06T00:07:34;99240.97;;;7.76;78.93
72892;BME280;61032;50.782;6.818;2024-01-06T00:08:35;99241.09;;;7.79;78.97
72892;BME280;61032;50.782;6.818;2024-01-06T00:09:35;99239.84;;;7.89;79.06
72892;BME280;61032;50.782;6.818;2024-01-06T00:10:35;99241.69;;;7.85;78.53
72892;BME280;61032;50.782;6.818;2024-01-06T00:11:36;99248.06;;;7.89;78.78
72892;BME280;61032;50.782;6.818;2024-01-06T00:12:36;99237.31;;;7.96;78.34
72892;BME280;61032;50.782;6.818;2024-01-06T00:13:36;99240.84;;;7.97;78.16
72892;BME280;61032;50.782;6.818;2024-01-06T00:14:37;99246.81;;;7.86;78.30
72892;BME280;61032;50.782;6.818;2024-01-06T00:15:37;99238.69;;;7.78;79.02
72892;BME280;61032;50.782;6.818;2024-01-06T00:16:37;99255.13;;;7.78;79.42
72892;BME280;61032;50.782;6.818;2024-01-06T00:17:37;99244.41;;;7.85;79.36
72892;BME280;61032;50.782;6.818;2024-01-06T00:18:39;99252.59;;;7.73;80.11
72892;BME280;61032;50.782;6.818;2024-01-06T00:19:39;99250.00;;;7.76;80.00
72892;BME280;61032;50.782;6.818;2024-01-06T00:20:40;99251.25;;;7.79;80.34
72892;BME280;61032;50.782;6.818;2024-01-06T00:21:40;99244.66;;;7.68;79.71
72892;BME280;61032;50.782;6.818;2024-01-06T00:22:40;99252.16;;;7.71;80.39
72892;BME280;61032;50.782;6.818;2024-01-06T00:23:42;99248.72;;;7.74;80.29
72892;BME280;61032;50.782;6.818;2024-01-06T00:24:43;99252.03;;;7.79;80.12
72892;BME280;61032;50.782;6.818;2024-01-06T00:25:43;99252.63;;;7.85;79.80
72892;BME280;61032;50.782;6.818;2024-01-06T00:26:43;99255.56;;;7.92;79.84
72892;BME280;61032;50.782;6.818;2024-01-06T00:27:44;99254.88;;;7.95;79.60
72892;BME280;61032;50.782;6.818;2024-01-06T00:28:44;99257.84;;;7.78;79.71
72892;BME280;61032;50.782;6.818;2024-01-06T00:29:44;99258.31;;;7.80;80.29
72892;BME280;61032;50.782;6.818;2024-01-06T00:30:45;99259.81;;;7.89;79.97
72892;BME280;61032;50.782;6.818;2024-01-06T00:31:45;99256.47;;;7.96;80.05
72892;BME280;61032;50.782;6.818;2024-01-06T00:32:45;99256.25;;;8.01;79.95
72892;BME280;61032;50.782;6.818;2024-01-06T00:33:46;99254.22;;;7.86;79.68
72892;BME280;61032;50.782;6.818;2024-01-06T00:34:46;99259.88;;;7.93;80.01
72892;BME280;61032;50.782;6.818;2024-01-06T00:35:47;99258.53;;;7.87;79.93
72892;BME280;61032;50.782;6.818;2024-01-06T00:36:47;99266.50;;;7.92;79.57
72892;BME280;61032;50.782;6.818;2024-01-06T00:37:48;99262.41;;;7.86;79.72
72892;BME280;61032;50.782;6.818;2024-01-06T00:38:48;99259.44;;;7.91;80.17
72892;BME280;61032;50.782;6.818;2024-01-06T00:39:48;99263.09;;;7.95;80.22
72892;BME280;61032;50.782;6.818;2024-01-06T00:40:49;99265.69;;;7.91;80.20
72892;BME280;61032;50.782;6.818;2024-01-06T00:41:49;99267.06;;;7.98;79.69
72892;BME280;61032;50.782;6.818;2024-01-06T00:42:49;99264.91;;;7.91;79.34
72892;BME280;61032;50.782;6.818;2024-01-06T00:43:50;99256.59;;;8.00;79.36
72892;BME280;61032;50.782;6.818;2024-01-06T00:44:50;99261.75;;;7.89;79.57
72892;BME280;61032;50.782;6.818;2024-01-06T00:45:50;99262.41;;;7.98;79.75
72892;BME280;61032;50.782;6.818;2024-01-06T00:46:51;99257.28;;;7.97;79.29
72892;BME280;61032;50.782;6.818;2024-01-06T00:47:51;99265.59;;;8.00;79.69
72892;BME280;61032;50.782;6.818;2024-01-06T00:48:51;99251.78;;;7.97;79.68
72892;BME280;61032;50.782;6.818;2024-01-06T00:49:52;99247.81;;;7.94;79.41
72892;BME280;61032;50.782;6.818;2024-01-06T00:50:52;99255.56;;;7.92;79.71
72892;BME280;61032;50.782;6.818;2024-01-06T00:51:52;99263.53;;;7.97;79.81
72892;BME280;61032;50.782;6.818;2024-01-06T00:52:52;99258.41;;;7.96;79.62
72892;BME280;61032;50.782;6.818;2024-01-06T00:53:53;99255.47;;;7.88;80.04
72892;BME280;61032;50.782;6.818;2024-01-06T00:54:53;99256.47;;;7.96;79.87
72892;BME280;61032;50.782;6.818;2024-01-06T00:55:54;99258.31;;;8.04;79.42
72892;BME280;61032;50.782;6.818;2024-01-06T00:56:54;99255.78;;;7.99;79.58
72892;BME280;61032;50.782;6.818;2024-01-06T00:57:54;99246.66;;;8.07;79.54
72892;BME280;61032;50.782;6.818;2024-01-06T00:58:55;99249.88;;;8.09;79.11
72892;BME280;61032;50.782;6.818;2024-01-06T00:59:55;99253.47;;;8.13;78.79
72892;BME280;61032;50.782;6.818;2024-01-06T01:00:55;99248.25;;;8.08;78.78
72892;BME280;61032;50.782;6.818;2024-01-06T01:01:56;99253.59;;;8.17;78.96
72892;BME280;61032;50.782;6.818;2024-01-06T01:02:56;99253.25;;;8.18;78.64
72892;BME280;61032;50.782;6.818;2024-01-06T01:03:57;99252.13;;;8.19;78.90
72892;BME280;61032;50.782;6.818;2024-01-06T01:04:57;99259.75;;;8.14;77.99
72892;BME280;61032;50.782;6.818;2024-01-06T01:05:57;99260.78;;;8.21;78.58
72892;BME280;61032;50.782;6.818;2024-01-06T01:06:58;99262.50;;;8.26;78.23
72892;BME280;61032;50.782;6.818;2024-01-06T01:07:58;99254.63;;;8.24;78.35
72892;BME280;61032;50.782;6.818;2024-01-06T01:08:58;99263.50;;;8.21;78.20
72892;BME280;61032;50.782;6.818;2024-01-06T01:09:59;99256.22;;;8.13;78.27
72892;BME280;61032;50.782;6.818;2024-01-06T01:10:59;99262.41;;;8.10;78.24
72892;BME280;61032;50.782;6.818;2024-01-06T01:12:00;99262.16;;;8.15;78.51
72892;BME280;61032;50.782;6.818;2024-01-06T01:13:00;99267.88;;;8.10;78.53
72892;BME280;61032;50.782;6.818;2024-01-06T01:14:00;99265.47;;;8.09;78.83
72892;BME280;61032;50.782;6.818;2024-01-06T01:15:01;99259.28;;;8.12;78.81
72892;BME280;61032;50.782;6.818;2024-01-06T01:16:01;99261.22;;;8.11;79.03
72892;BME280;61032;50.782;6.818;2024-01-06T01:17:03;99270.38;;;8.03;79.49
72892;BME280;61032;50.782;6.818;2024-01-06T01:18:04;99268.44;;;8.04;79.73
72892;BME280;61032;50.782;6.818;2024-01-06T01:19:04;99278.38;;;7.96;80.71
72892;BME280;61032;50.782;6.818;2024-01-06T01:20:05;99270.50;;;7.94;80.79
72892;BME280;61032;50.782;6.818;2024-01-06T01:21:06;99274.50;;;7.97;81.20
72892;BME280;61032;50.782;6.818;2024-01-06T01:22:06;99280.41;;;7.99;81.54
72892;BME280;61032;50.782;6.818;2024-01-06T01:23:07;99273.56;;;7.93;81.71
72892;BME280;61032;50.782;6.818;2024-01-06T01:24:07;99275.63;;;7.96;82.40
72892;BME280;61032;50.782;6.818;2024-01-06T01:25:08;99278.25;;;8.05;82.24
72892;BME280;61032;50.782;6.818;2024-01-06T01:26:08;99281.00;;;8.05;82.53
72892;BME280;61032;50.782;6.818;2024-01-06T01:27:09;99287.03;;;7.98;81.98
72892;BME280;61032;50.782;6.818;2024-01-06T01:28:09;99279.97;;;7.97;82.94
72892;BME280;61032;50.782;6.818;2024-01-06T01:29:09;99279.97;;;7.97;82.89
72892;BME280;61032;50.782;6.818;2024-01-06T01:30:10;99284.31;;;7.86;83.44
72892;BME280;61032;50.782;6.818;2024-01-06T01:31:12;99279.97;;;7.97;83.60
72892;BME280;61032;50.782;6.818;2024-01-06T01:32:13;99285.09;;;7.86;83.80
72892;BME280;61032;50.782;6.818;2024-01-06T01:33:13;99281.31;;;7.91;83.66
72892;BME280;61032;50.782;6.818;2024-01-06T01:34:14;99280.19;;;7.92;83.77
72892;BME280;61032;50.782;6.818;2024-01-06T01:35:14;99285.31;;;7.81;84.18
72892;BME280;61032;50.782;6.818;2024-01-06T01:36:15;99273.38;;;7.86;84.52
72892;BME280;61032;50.782;6.818;2024-01-06T01:37:15;99278.97;;;7.89;84.42
72892;BME280;61032;50.782;6.818;2024-01-06T01:38:16;99292.50;;;7.98;84.70
72892;BME280;61032;50.782;6.818;2024-01-06T01:39:16;99289.31;;;7.96;84.93
72892;BME280;61032;50.782;6.818;2024-01-06T01:40:17;99285.66;;;8.04;84.39
72892;BME280;61032;50.782;6.818;2024-01-06T01:41:18;99288.75;;;8.03;84.70
72892;BME280;61032;50.782;6.818;2024-01-06T01:42:18;99288.53;;;8.08;84.63
72892;BME280;61032;50.782;6.818;2024-01-06T01:43:19;99290.44;;;7.95;84.46
72892;BME280;61032;50.782;6.818;2024-01-06T01:44:20;99291.47;;;7.90;84.80
72892;BME280;61032;50.782;6.818;2024-01-06T01:45:20;99284.78;;;7.88;85.21
72892;BME280;61032;50.782;6.818;2024-01-06T01:46:20;99289.88;;;7.65;85.74
72892;BME280;61032;50.782;6.818;2024-01-06T01:47:21;99289.31;;;7.72;86.37
72892;BME280;61032;50.782;6.818;2024-01-06T01:48:22;99292.84;;;7.60;86.32
72892;BME280;61032;50.782;6.818;2024-01-06T01:49:22;99289.09;;;7.65;87.09
72892;BME280;61032;50.782;6.818;2024-01-06T01:50:23;99297.75;;;7.67;87.09
72892;BME280;61032;50.782;6.818;2024-01-06T01:51:27;99297.28;;;7.77;86.99
72892;BME280;61032;50.782;6.818;2024-01-06T01:52:29;99295.94;;;7.83;87.06
72892;BME280;61032;50.782;6.818;2024-01-06T01:53:29;99297.19;;;7.85;86.41
72892;BME280;61032;50.782;6.818;2024-01-06T01:54:31;99293.63;;;7.73;86.22
72892;BME280;61032;50.782;6.818;2024-01-06T01:55:32;99294.88;;;7.75;86.41
72892;BME280;61032;50.782;6.818;2024-01-06T01:56:32;99298.88;;;7.78;85.86
72892;BME280;61032;50.782;6.818;2024-01-06T01:57:34;99294.69;;;7.68;86.09
72892;BME280;61032;50.782;6.818;2024-01-06T01:58:34;99288.28;;;7.76;86.29
72892;BME280;61032;50.782;6.818;2024-01-06T01:59:34;99295.94;;;7.83;86.49
72892;BME280;61032;50.782;6.818;2024-01-06T02:00:35;99295.38;;;7.89;86.60
72892;BME280;61032;50.782;6.818;2024-01-06T02:01:36;99297.19;;;7.98;86.18
72892;BME280;61032;50.782;6.818;2024-01-06T02:02:36;99293.97;;;7.96;85.25
72892;BME280;61032;50.782;6.818;2024-01-06T02:03:38;99300.13;;;7.92;85.71
72892;BME280;61032;50.782;6.818;2024-01-06T02:04:40;99303.00;;;7.96;85.40
72892;BME280;61032;50.782;6.818;2024-01-06T02:05:41;99291.38;;;7.99;85.40
72892;BME280;61032;50.782;6.818;2024-01-06T02:06:41;99296.84;;;7.99;84.83
72892;BME280;61032;50.782;6.818;2024-01-06T02:07:41;99294.31;;;7.94;84.93
72892;BME280;61032;50.782;6.818;2024-01-06T02:08:42;99300.38;;;8.00;85.56
72892;BME280;61032;50.782;6.818;2024-01-06T02:09:42;99300.59;;;8.07;85.10
72892;BME280;61032;50.782;6.818;2024-01-06T02:10:43;99303.81;;;8.09;85.23
72892;BME280;61032;50.782;6.818;2024-01-06T02:11:43;99303.22;;;8.15;84.82
72892;BME280;61032;50.782;6.818;2024-01-06T02:12:44;99306.19;;;7.98;84.57
72892;BME280;61032;50.782;6.818;2024-01-06T02:13:44;99300.59;;;7.94;85.32
72892;BME280;61032;50.782;6.818;2024-01-06T02:14:44;99303.13;;;8.00;85.53
72892;BME280;61032;50.782;6.818;2024-01-06T02:15:44;99308.94;;;7.98;85.56
72892;BME280;61032;50.782;6.818;2024-01-06T02:16:45;99309.84;;;8.02;85.60
72892;BME280;61032;50.782;6.818;2024-01-06T02:17:45;99301.97;;;8.01;85.31
72892;BME280;61032;50.782;6.818;2024-01-06T02:18:46;99309.81;;;7.90;85.36
72892;BME280;61032;50.782;6.818;2024-01-06T02:19:46;99315.28;;;7.90;85.73
72892;BME280;61032;50.782;6.818;2024-01-06T02:20:48;99308.00;;;7.94;85.99
72892;BME280;61032;50.782;6.818;2024-01-06T02:21:52;99308.69;;;8.03;86.22
72892;BME280;61032;50.782;6.818;2024-01-06T02:22:53;99313.16;;;8.08;86.09
72892;BME280;61032;50.782;6.818;2024-01-06T02:23:53;99323.06;;;8.12;86.21
72892;BME280;61032;50.782;6.818;2024-01-06T02:24:54;99313.38;;;8.03;85.18
72892;BME280;61032;50.782;6.818;2024-01-06T02:25:55;99318.72;;;7.99;85.89
72892;BME280;61032;50.782;6.818;2024-01-06T02:26:55;99318.72;;;8.11;85.80
72892;BME280;61032;50.782;6.818;2024-01-06T02:27:55;99318.16;;;8.18;85.72
72892;BME280;61032;50.782;6.818;2024-01-06T02:28:56;99317.38;;;8.05;85.15
72892;BME280;61032;50.782;6.818;2024-01-06T02:29:56;99309.03;;;8.02;85.18
72892;BME280;61032;50.782;6.818;2024-01-06T02:30:57;99316.66;;;7.96;85.79
72892;BME280;61032;50.782;6.818;2024-01-06T02:31:57;99313.72;;;7.89;86.05
72892;BME280;61032;50.782;6.818;2024-01-06T02:32:58;99316.56;;;7.92;86.82
72892;BME280;61032;50.782;6.818;2024-01-06T02:33:59;99316.44;;;8.01;86.81
72892;BME280;61032;50.782;6.818;2024-01-06T02:34:59;99319.19;;;8.01;86.40
72892;BME280;61032;50.782;6.818;2024-01-06T02:35:59;99317.03;;;8.07;86.23
72892;BME280;61032;50.782;6.818;2024-01-06T02:37:00;99324.91;;;8.08;86.00
72892;BME280;61032;50.782;6.818;2024-01-06T02:38:00;99317.84;;;8.07;85.69
72892;BME280;61032;50.782;6.818;2024-01-06T02:39:01;99319.88;;;7.86;86.12
72892;BME280;61032;50.782;6.818;2024-01-06T02:40:01;99328.09;;;7.86;86.92
72892;BME280;61032;50.782;6.818;2024-01-06T02:41:02;99332.16;;;7.92;86.88
72892;BME280;61032;50.782;6.818;2024-01-06T02:42:02;99331.94;;;7.97;87.41
72892;BME280;61032;50.782;6.818;2024-01-06T02:43:03;99334.81;;;8.01;87.16
72892;BME280;61032;50.782;6.818;2024-01-06T02:44:04;99330.94;;;8.02;86.81
72892;BME280;61032;50.782;6.818;2024-01-06T02:45:04;99336.06;;;8.03;87.13
72892;BME280;61032;50.782;6.818;2024-01-06T02:46:07;99342.91;;;8.09;87.15
72892;BME280;61032;50.782;6.818;2024-01-06T02:47:07;99337.44;;;8.09;87.05
72892;BME280;61032;50.782;6.818;2024-01-06T02:48:07;99340.28;;;8.13;86.91
72892;BME280;61032;50.782;6.818;2024-01-06T02:49:08;99337.19;;;8.14;86.82
72892;BME280;61032;50.782;6.818;2024-01-06T02:50:08;99338.00;;;8.15;86.46
72892;BME280;61032;50.782;6.818;2024-01-06T02:51:11;99337.19;;;8.14;86.19
72892;BME280;61032;50.782;6.818;2024-01-06T02:52:11;99335.50;;;7.98;86.27
72892;BME280;61032;50.782;6.818;2024-01-06T02:53:12;99344.63;;;8.02;86.75
72892;BME280;61032;50.782;6.818;2024-01-06T02:54:12;99340.41;;;8.04;86.97
72892;BME280;61032;50.782;6.818;2024-01-06T02:55:13;99341.06;;;8.13;86.67
72892;BME280;61032;50.782;6.818;2024-01-06T02:56:13;99342.91;;;8.21;86.42
72892;BME280;61032;50.782;6.818;2024-01-06T02:57:14;99355.91;;;8.12;86.12
72892;BME280;61032;50.782;6.818;2024-01-06T02:58:15;99350.56;;;8.04;86.50
72892;BME280;61032;50.782;6.818;2024-01-06T02:59:15;99356.16;;;8.07;86.67
72892;BME280;61032;50.782;6.818;2024-01-06T03:00:15;99350.09;;;8.02;86.43
72892;BME280;61032;50.782;6.818;2024-01-06T03:01:17;99356.13;;;7.95;87.26
72892;BME280;61032;50.782;6.818;2024-01-06T03:02:17;99354.06;;;7.92;86.95
72892;BME280;61032;50.782;6.818;2024-01-06T03:03:18;99359.44;;;8.01;87.23
72892;BME280;61032;50.782;6.818;2024-01-06T03:04:18;99362.59;;;7.90;87.00
72892;BME280;61032;50.782;6.818;2024-01-06T03:05:19;99368.00;;;7.87;87.23
72892;BME280;61032;50.782;6.818;2024-01-06T03:06:19;99368.44;;;7.89;87.96
72892;BME280;61032;50.782;6.818;2024-01-06T03:07:19;99371.41;;;7.96;88.21
72892;BME280;61032;50.782;6.818;2024-01-06T03:08:20;99361.72;;;7.99;87.98
72892;BME280;61032;50.782;6.818;2024-01-06T03:09:20;99367.28;;;7.90;87.40
72892;BME280;61032;50.782;6.818;2024-01-06T03:10:20;99370.38;;;7.88;87.62
72892;BME280;61032;50.782;6.818;2024-01-06T03:11:21;99368.22;;;7.94;87.63
72892;BME280;61032;50.782;6.818;2024-01-06T03:12:21;99369.13;;;7.98;87.22
72892;BME280;61032;50.782;6.818;2024-01-06T03:13:21;99372.09;;;8.05;87.04
72892;BME280;61032;50.782;6.818;2024-01-06T03:14:22;99367.97;;;8.11;86.47
72892;BME280;61032;50.782;6.818;2024-01-06T03:15:22;99367.09;;;8.07;86.37
72892;BME280;61032;50.782;6.818;2024-01-06T03:16:23;99366.16;;;8.15;86.28
72892;BME280;61032;50.782;6.818;2024-01-06T03:17:23;99373.91;;;8.13;85.92
72892;BME280;61032;50.782;6.818;2024-01-06T03:18:23;99370.03;;;8.14;86.18
72892;BME280;61032;50.782;6.818;2024-01-06T03:19:24;99373.56;;;8.15;86.02
72892;BME280;61032;50.782;6.818;2024-01-06T03:20:27;99370.28;;;8.09;86.00
72892;BME280;61032;50.782;6.818;2024-01-06T03:21:27;99365.63;;;8.10;86.12
72892;BME280;61032;50.782;6.818;2024-01-06T03:22:28;99375.06;;;8.12;86.45
72892;BME280;61032;50.782;6.818;2024-01-06T03:23:28;99372.22;;;8.09;86.58
72892;BME280;61032;50.782;6.818;2024-01-06T03:24:28;99373.81;;;8.10;86.50
72892;BME280;61032;50.782;6.818;2024-01-06T03:25:29;99368.78;;;8.12;86.66
72892;BME280;61032;50.782;6.818;2024-01-06T03:26:29;99377.78;;;8.12;87.06
72892;BME280;61032;50.782;6.818;2024-01-06T03:27:29;99384.19;;;8.04;86.80
72892;BME280;61032;50.782;6.818;2024-01-06T03:28:30;99381.91;;;8.06;87.03
72892;BME280;61032;50.782;6.818;2024-01-06T03:29:30;99381.25;;;8.09;87.18
72892;BME280;61032;50.782;6.818;2024-01-06T03:30:30;99380.31;;;8.17;87.38
72892;BME280;61032;50.782;6.818;2024-01-06T03:31:31;99373.25;;;8.16;86.97
72892;BME280;61032;50.782;6.818;2024-01-06T03:32:31;99377.81;;;8.24;86.92
72892;BME280;61032;50.782;6.818;2024-01-06T03:33:31;99374.63;;;8.22;86.37
72892;BME280;61032;50.782;6.818;2024-01-06T03:34:32;99377.13;;;8.27;86.17
72892;BME280;61032;50.782;6.818;2024-01-06T03:35:32;99380.22;;;8.26;86.17
72892;BME280;61032;50.782;6.818;2024-01-06T03:36:33;99379.19;;;8.18;85.79
72892;BME280;61032;50.782;6.818;2024-01-06T03:37:34;99373.25;;;8.16;86.07
72892;BME280;61032;50.782;6.818;2024-01-06T03:38:35;99374.03;;;8.17;86.42
72892;BME280;61032;50.782;6.818;2024-01-06T03:39:35;99375.78;;;8.09;86.21
72892;BME280;61032;50.782;6.818;2024-01-06T03:40:35;99376.78;;;8.17;86.51
72892;BME280;61032;50.782;6.818;2024-01-06T03:41:36;99375.31;;;8.19;86.65
72892;BME280;61032;50.782;6.818;2024-01-06T03:42:36;99372.34;;;8.24;86.80
72892;BME280;61032;50.782;6.818;2024-01-06T03:43:37;99374.28;;;8.24;86.27
72892;BME280;61032;50.782;6.818;2024-01-06T03:44:37;99372.81;;;8.26;86.19
72892;BME280;61032;50.782;6.818;2024-01-06T03:45:37;99372.91;;;8.30;86.46
72892;BME280;61032;50.782;6.818;2024-01-06T03:46:38;99371.19;;;8.25;85.76
72892;BME280;61032;50.782;6.818;2024-01-06T03:47:38;99374.28;;;8.24;86.29
72892;BME280;61032;50.782;6.818;2024-01-06T03:48:39;99375.06;;;8.24;86.31
72892;BME280;61032;50.782;6.818;2024-01-06T03:49:39;99379.19;;;8.31;86.29
72892;BME280;61032;50.782;6.818;2024-01-06T03:50:39;99380.34;;;8.30;85.97
72892;BME280;61032;50.782;6.818;2024-01-06T03:51:40;99373.50;;;8.36;85.64
72892;BME280;61032;50.782;6.818;2024-01-06T03:52:40;99378.84;;;8.32;86.15
72892;BME280;61032;50.782;6.818;2024-01-06T03:53:40;99377.84;;;8.37;85.94
72892;BME280;61032;50.782;6.818;2024-01-06T03:54:40;99379.78;;;8.36;85.58
72892;BME280;61032;50.782;6.818;2024-01-06T03:55:41;99376.91;;;8.33;85.80
72892;BME280;61032;50.782;6.818;2024-01-06T03:56:41;99376.44;;;8.31;85.91
72892;BME280;61032;50.782;6.818;2024-01-06T03:57:42;99384.22;;;8.28;85.97
72892;BME280;61032;50.782;6.818;2024-01-06T03:58:42;99383.16;;;8.21;85.51
72892;BME280;61032;50.782;6.818;2024-01-06T03:59:42;99384.88;;;8.25;86.07
72892;BME280;61032;50.782;6.818;2024-01-06T04:00:43;99393.69;;;8.31;86.29
72892;BME280;61032;50.782;6.818;2024-01-06T04:01:43;99390.94;;;8.31;85.69
72892;BME280;61032;50.782;6.818;2024-01-06T04:02:43;99386.03;;;8.37;85.73
72892;BME280;61032;50.782;6.818;2024-01-06T04:03:44;99389.91;;;8.36;85.78
72892;BME280;61032;50.782;6.818;2024-01-06T04:04:44;99394.94;;;8.34;85.86
72892;BME280;61032;50.782;6.818;2024-01-06T04:05:44;99396.09;;;8.33;85.64
72892;BME280;61032;50.782;6.818;2024-01-06T04:06:45;99387.66;;;8.38;85.63
72892;BME280;61032;50.782;6.818;2024-01-06T04:07:45;99399.50;;;8.30;85.73
72892;BME280;61032;50.782;6.818;2024-01-06T04:08:45;99402.56;;;8.28;86.01
72892;BME280;61032;50.782;6.818;2024-01-06T04:09:46;99397.56;;;8.30;86.26
72892;BME280;61032;50.782;6.818;2024-01-06T04:10:47;99403.97;;;8.34;86.60
72892;BME280;61032;50.782;6.818;2024-01-06T04:11:47;99398.81;;;8.33;86.10
72892;BME280;61032;50.782;6.818;2024-01-06T04:12:47;99403.63;;;8.36;86.12
72892;BME280;61032;50.782;6.818;2024-01-06T04:13:48;99398.03;;;8.32;86.42
72892;BME280;61032;50.782;6.818;2024-01-06T04:14:48;99396.19;;;8.36;86.00
72892;BME280;61032;50.782;6.818;2024-01-06T04:15:48;99398.59;;;8.38;85.87
72892;BME280;61032;50.782;6.818;2024-01-06T04:16:49;99400.88;;;8.36;86.07
72892;BME280;61032;50.782;6.818;2024-01-06T04:17:49;99396.88;;;8.33;85.78
72892;BME280;61032;50.782;6.818;2024-01-06T04:18:49;99404.84;;;8.26;85.66
72892;BME280;61032;50.782;6.818;2024-01-06T04:19:50;99398.91;;;8.24;86.12
72892;BME280;61032;50.782;6.818;2024-01-06T04:20:50;99405.19;;;8.24;86.22
72892;BME280;61032;50.782;6.818;2024-01-06T04:21:50;99399.94;;;8.32;86.64
72892;BME280;61032;50.782;6.818;2024-01-06T04:22:51;99405.78;;;8.42;86.31
72892;BME280;61032;50.782;6.818;2024-01-06T04:23:51;99408.19;;;8.44;86.30
72892;BME280;61032;50.782;6.818;2024-01-06T04:24:51;99403.06;;;8.42;85.73
72892;BME280;61032;50.782;6.818;2024-01-06T04:25:52;99411.84;;;8.36;86.29
72892;BME280;61032;50.782;6.818;2024-01-06T04:26:52;99411.94;;;8.27;85.79
72892;BME280;61032;50.782;6.818;2024-01-06T04:27:53;99410.66;;;8.24;86.40
72892;BME280;61032;50.782;6.818;2024-01-06T04:28:53;99411.47;;;8.25;86.69
72892;BME280;61032;50.782;6.818;2024-01-06T04:29:53;99411.59;;;8.28;86.44
72892;BME280;61032;50.782;6.818;2024-01-06T04:30:54;99416.59;;;8.26;86.61
72892;BME280;61032;50.782;6.818;2024-01-06T04:31:54;99419.81;;;8.28;87.02
72892;BME280;61032;50.782;6.818;2024-01-06T04:32:54;99414.31;;;8.16;86.75
72892;BME280;61032;50.782;6.818;2024-01-06T04:33:55;99421.38;;;8.17;87.10
72892;BME280;61032;50.782;6.818;2024-01-06T04:34:55;99409.53;;;8.25;87.27
72892;BME280;61032;50.782;6.818;2024-01-06T04:35:57;99408.06;;;8.28;86.94
72892;BME280;61032;50.782;6.818;2024-01-06T04:36:59;99409.19;;;8.27;86.89
72892;BME280;61032;50.782;6.818;2024-01-06T04:37:59;99408.38;;;8.26;86.89
72892;BME280;61032;50.782;6.818;2024-01-06T04:39:00;99404.19;;;8.29;87.26
72892;BME280;61032;50.782;6.818;2024-01-06T04:40:00;99416.59;;;8.26;86.79
72892;BME280;61032;50.782;6.818;2024-01-06T04:41:01;99414.22;;;8.25;87.04
72892;BME280;61032;50.782;6.818;2024-01-06T04:42:01;99411.59;;;8.28;87.05
72892;BME280;61032;50.782;6.818;2024-01-06T04:43:01;99411.16;;;8.39;86.91
72892;BME280;61032;50.782;6.818;2024-01-06T04:44:03;99408.88;;;8.41;86.32
72892;BME280;61032;50.782;6.818;2024-01-06T04:45:04;99414.81;;;8.43;86.30
72892;BME280;61032;50.782;6.818;2024-01-06T04:46:04;99410.88;;;8.32;86.12
72892;BME280;61032;50.782;6.818;2024-01-06T04:47:05;99412.63;;;8.36;86.31
72892;BME280;61032;50.782;6.818;2024-01-06T04:48:05;99408.06;;;8.40;86.40
72892;BME280;61032;50.782;6.818;2024-01-06T04:49:06;99411.38;;;8.46;86.27
72892;BME280;61032;50.782;6.818;2024-01-06T04:50:06;99413.19;;;8.30;85.74
72892;BME280;61032;50.782;6.818;2024-01-06T04:51:07;99411.16;;;8.39;85.84
72892;BME280;61032;50.782;6.818;2024-01-06T04:52:10;99417.75;;;8.38;86.11
72892;BME280;61032;50.782;6.818;2024-01-06T04:53:10;99411.84;;;8.36;86.19
72892;BME280;61032;50.782;6.818;2024-01-06T04:54:11;99413.06;;;8.26;86.25
72892;BME280;61032;50.782;6.818;2024-01-06T04:55:11;99413.28;;;8.21;86.61
72892;BME280;61032;50.782;6.818;2024-01-06T04:56:12;99403.81;;;8.18;86.80
72892;BME280;61032;50.782;6.818;2024-01-06T04:57:13;99412.72;;;8.27;87.36
72892;BME280;61032;50.782;6.818;2024-01-06T04:58:14;99415.13;;;8.29;86.61
72892;BME280;61032;50.782;6.818;2024-01-06T04:59:14;99418.19;;;8.27;86.51
72892;BME280;61032;50.782;6.818;2024-01-06T05:00:15;99417.44;;;8.39;86.75
72892;BME280;61032;50.782;6.818;2024-01-06T05:01:15;99420.28;;;8.43;85.99
72892;BME280;61032;50.782;6.818;2024-01-06T05:02:16;99420.63;;;8.41;85.62
72892;BME280;61032;50.782;6.818;2024-01-06T05:03:16;99422.78;;;8.36;85.94
72892;BME280;61032;50.782;6.818;2024-01-06T05:04:17;99421.53;;;8.33;86.49
72892;BME280;61032;50.782;6.818;2024-01-06T05:05:17;99428.13;;;8.32;86.88
72892;BME280;61032;50.782;6.818;2024-01-06T05:06:18;99435.34;;;8.37;86.41
72892;BME280;61032;50.782;6.818;2024-01-06T05:07:18;99423.91;;;8.35;86.32
72892;BME280;61032;50.782;6.818;2024-01-06T05:08:18;99432.59;;;8.37;86.52
72892;BME280;61032;50.782;6.818;2024-01-06T05:09:19;99426.66;;;8.35;86.44
72892;BME280;61032;50.782;6.818;2024-01-06T05:10:19;99431.69;;;8.33;86.65
72892;BME280;61032;50.782;6.818;2024-01-06T05:11:20;99420.50;;;8.38;86.61
72892;BME280;61032;50.782;6.818;2024-01-06T05:12:20;99430.41;;;8.30;86.63
72892;BME280;61032;50.782;6.818;2024-01-06T05:13:20;99429.81;;;8.12;86.63
72892;BME280;61032;50.782;6.818;2024-01-06T05:14:21;99431.38;;;7.89;87.48
72892;BME280;61032;50.782;6.818;2024-01-06T05:15:21;99429.09;;;7.91;88.62
72892;BME280;61032;50.782;6.818;2024-01-06T05:16:21;99436.28;;;7.96;88.86
72892;BME280;61032;50.782;6.818;2024-01-06T05:17:22;99430.59;;;7.88;89.15
72892;BME280;61032;50.782;6.818;2024-01-06T05:18:22;99432.84;;;7.86;89.39
72892;BME280;61032;50.782;6.818;2024-01-06T05:19:22;99430.47;;;7.97;89.22
72892;BME280;61032;50.782;6.818;2024-01-06T05:20:23;99443.69;;;7.95;89.11
72892;BME280;61032;50.782;6.818;2024-01-06T05:21:23;99438.69;;;7.97;89.14
72892;BME280;61032;50.782;6.818;2024-01-06T05:22:23;99440.53;;;8.05;88.92
72892;BME280;61032;50.782;6.818;2024-01-06T05:23:24;99438.34;;;8.11;88.56
72892;BME280;61032;50.782;6.818;2024-01-06T05:24:24;99444.88;;;8.06;88.22